^^
TXWeather Station Historical Data
 
Daily Summary for January 20, 2021 Units:  English    Metric   Both
Daily Weekly Monthly Yearly Custom
  Current: High: Low: Average:
Temperature: 62.8 °F 68.4 °F 56.3 °F 61.1 °F
Dew Point: 59.5 °F 61.2 °F 51.8 °F 56 °F
Humidity: 90% 90% 76% 84%
Wind Speed: 7mph 13mph 2mph 6.4mph
Wind Gust: 7mph 13mph - -
WindSE - - East
Pressure: 30.2 in 30.4 in 30.2 in -
Precipitation: 0.000 in      
Historical Graphs
 
 
Tabular Data for January 20, 2021
Time Temperature Dew Point Pressure Wind Wind Speed Wind Gust Humidity Rainfall Rate (Hourly) solar
00:04 60.3 °F 55.4 °F 30.4 in North 9 mph 9 mph 84% 0.000 in 0.00 W/m2
00:09 60.3 °F 55.4 °F 30.4 in North 6 mph 8 mph 84% 0.000 in 0.00 W/m2
00:14 60.3 °F 55.4 °F 30.4 in NNW 6 mph 6 mph 84% 0.000 in 0.00 W/m2
00:19 60.1 °F 54.9 °F 30.4 in North 6 mph 8 mph 83% 0.000 in 0.00 W/m2
00:24 60.1 °F 54.9 °F 30.4 in NNW 8 mph 8 mph 83% 0.000 in 0.00 W/m2
00:29 60.1 °F 54.9 °F 30.4 in North 6 mph 8 mph 83% 0.000 in 0.00 W/m2
00:34 59.7 °F 54.5 °F 30.4 in North 7 mph 8 mph 83% 0.000 in 0.00 W/m2
00:39 59.7 °F 54.5 °F 30.4 in NNE 8 mph 9 mph 83% 0.000 in 0.00 W/m2
00:44 59.5 °F 54.3 °F 30.4 in North 7 mph 9 mph 83% 0.000 in 0.00 W/m2
00:49 59.5 °F 54.3 °F 30.4 in North 6 mph 6 mph 83% 0.000 in 0.00 W/m2
00:54 59.4 °F 54.1 °F 30.4 in North 6 mph 8 mph 83% 0.000 in 0.00 W/m2
00:59 59.2 °F 54.0 °F 30.4 in North 4 mph 8 mph 83% 0.000 in 0.00 W/m2
01:04 59.2 °F 54.0 °F 30.4 in NNE 5 mph 5 mph 83% 0.000 in 0.00 W/m2
01:09 58.8 °F 53.6 °F 30.4 in North 5 mph 5 mph 83% 0.000 in 0.00 W/m2
01:14 58.8 °F 53.6 °F 30.4 in North 6 mph 8 mph 83% 0.000 in 0.00 W/m2
01:19 58.6 °F 53.4 °F 30.4 in North 8 mph 8 mph 83% 0.000 in 0.00 W/m2
01:24 58.6 °F 53.4 °F 30.4 in North 6 mph 6 mph 83% 0.000 in 0.00 W/m2
01:29 58.5 °F 53.6 °F 30.4 in NNE 8 mph 8 mph 84% 0.000 in 0.00 W/m2
01:34 58.5 °F 53.6 °F 30.4 in NNE 6 mph 8 mph 84% 0.000 in 0.00 W/m2
01:39 58.5 °F 53.6 °F 30.4 in NNE 5 mph 7 mph 84% 0.000 in 0.00 W/m2
01:44 58.5 °F 53.6 °F 30.4 in NNE 8 mph 8 mph 84% 0.000 in 0.00 W/m2
01:49 58.3 °F 53.4 °F 30.4 in NNE 6 mph 7 mph 84% 0.000 in 0.00 W/m2
01:54 58.3 °F 53.1 °F 30.4 in NNE 7 mph 8 mph 83% 0.000 in 0.00 W/m2
01:59 58.3 °F 53.1 °F 30.4 in NNE 8 mph 8 mph 83% 0.000 in 0.00 W/m2
02:04 58.3 °F 53.1 °F 30.4 in NNE 7 mph 8 mph 83% 0.000 in 0.00 W/m2
02:09 58.1 °F 52.9 °F 30.4 in NNE 7 mph 7 mph 83% 0.000 in 0.00 W/m2
02:14 57.9 °F 52.7 °F 30.4 in NNE 9 mph 9 mph 83% 0.000 in 0.00 W/m2
02:19 57.9 °F 52.7 °F 30.4 in NNE 9 mph 10 mph 83% 0.000 in 0.00 W/m2
02:24 57.9 °F 52.7 °F 30.4 in NNE 6 mph 8 mph 83% 0.000 in 0.00 W/m2
02:29 57.9 °F 52.7 °F 30.4 in NNE 6 mph 9 mph 83% 0.000 in 0.00 W/m2
02:34 57.9 °F 52.7 °F 30.4 in NNE 7 mph 8 mph 83% 0.000 in 0.00 W/m2
02:39 57.7 °F 52.9 °F 30.4 in NNE 5 mph 7 mph 84% 0.000 in 0.00 W/m2
02:44 57.7 °F 52.9 °F 30.4 in NNE 5 mph 7 mph 84% 0.000 in 0.00 W/m2
02:49 57.6 °F 52.7 °F 30.4 in NNE 3 mph 5 mph 84% 0.000 in 0.00 W/m2
02:54 57.6 °F 52.7 °F 30.4 in NE 5 mph 6 mph 84% 0.000 in 0.00 W/m2
02:59 57.4 °F 52.5 °F 30.4 in NNE 6 mph 6 mph 84% 0.000 in 0.00 W/m2
03:04 57.4 °F 52.5 °F 30.4 in NNE 7 mph 7 mph 84% 0.000 in 0.00 W/m2
03:09 57.2 °F 52.3 °F 30.4 in NNE 6 mph 6 mph 84% 0.000 in 0.00 W/m2
03:14 57.0 °F 52.2 °F 30.4 in NNE 6 mph 6 mph 84% 0.000 in 0.00 W/m2
03:19 57.0 °F 52.2 °F 30.4 in NNE 6 mph 6 mph 84% 0.000 in 0.00 W/m2
03:24 57.0 °F 52.2 °F 30.4 in NNE 8 mph 8 mph 84% 0.000 in 0.00 W/m2
03:29 56.8 °F 52.3 °F 30.4 in NNE 5 mph 5 mph 85% 0.000 in 0.00 W/m2
03:34 56.8 °F 52.3 °F 30.4 in NNE 6 mph 7 mph 85% 0.000 in 0.00 W/m2
03:39 56.8 °F 52.3 °F 30.3 in NNE 9 mph 9 mph 85% 0.000 in 0.00 W/m2
03:44 56.8 °F 52.3 °F 30.4 in NNE 6 mph 9 mph 85% 0.000 in 0.00 W/m2
03:49 56.8 °F 52.3 °F 30.4 in NNE 7 mph 7 mph 85% 0.000 in 0.00 W/m2
03:54 56.8 °F 52.0 °F 30.3 in NNE 6 mph 8 mph 84% 0.000 in 0.00 W/m2
03:59 56.8 °F 52.2 °F 30.3 in NNE 6 mph 6 mph 85% 0.000 in 0.00 W/m2
04:04 56.8 °F 52.3 °F 30.3 in North 5 mph 5 mph 85% 0.000 in 0.00 W/m2
04:09 56.8 °F 52.3 °F 30.3 in North 6 mph 6 mph 85% 0.000 in 0.00 W/m2
04:14 56.8 °F 52.3 °F 30.4 in North 8 mph 8 mph 85% 0.000 in 0.00 W/m2
04:19 56.8 °F 52.3 °F 30.3 in North 5 mph 5 mph 85% 0.000 in 0.00 W/m2
04:24 56.8 °F 52.0 °F 30.3 in North 5 mph 5 mph 84% 0.000 in 0.00 W/m2
04:29 56.8 °F 52.0 °F 30.4 in NNE 5 mph 7 mph 84% 0.000 in 0.00 W/m2
04:34 56.8 °F 52.0 °F 30.4 in NNE 6 mph 7 mph 84% 0.000 in 0.00 W/m2
04:39 56.8 °F 52.0 °F 30.4 in NNE 4 mph 6 mph 84% 0.000 in 0.00 W/m2
04:44 56.7 °F 51.8 °F 30.3 in NNE 6 mph 6 mph 84% 0.000 in 0.00 W/m2
04:49 56.7 °F 52.2 °F 30.4 in North 6 mph 7 mph 85% 0.000 in 0.00 W/m2
04:54 56.7 °F 52.2 °F 30.4 in NNE 7 mph 8 mph 85% 0.000 in 0.00 W/m2
04:59 56.7 °F 52.2 °F 30.4 in NNE 5 mph 7 mph 85% 0.000 in 0.00 W/m2
05:04 56.7 °F 52.2 °F 30.4 in NNE 9 mph 9 mph 85% 0.000 in 0.00 W/m2
05:09 56.7 °F 52.2 °F 30.4 in NNE 8 mph 9 mph 85% 0.000 in 0.00 W/m2
05:14 56.7 °F 52.0 °F 30.4 in NNE 5 mph 8 mph 85% 0.000 in 0.00 W/m2
05:19 56.7 °F 52.2 °F 30.4 in NE 3 mph 4 mph 85% 0.000 in 0.00 W/m2
05:24 56.7 °F 52.2 °F 30.4 in NNE 6 mph 6 mph 85% 0.000 in 0.00 W/m2
05:29 56.7 °F 52.2 °F 30.4 in NE 5 mph 7 mph 85% 0.000 in 0.00 W/m2
05:34 56.7 °F 52.2 °F 30.4 in NNE 4 mph 4 mph 85% 0.000 in 0.00 W/m2
05:39 56.7 °F 52.2 °F 30.4 in NE 5 mph 5 mph 85% 0.000 in 0.00 W/m2
05:44 56.7 °F 52.2 °F 30.4 in NNE 6 mph 6 mph 85% 0.000 in 0.00 W/m2
05:49 56.7 °F 52.5 °F 30.4 in NNE 5 mph 6 mph 86% 0.000 in 0.00 W/m2
05:54 56.7 °F 52.5 °F 30.4 in NE 5 mph 5 mph 86% 0.000 in 0.00 W/m2
05:59 56.7 °F 52.5 °F 30.4 in NNE 5 mph 5 mph 86% 0.000 in 0.00 W/m2
06:04 56.7 °F 52.5 °F 30.4 in NNE 8 mph 8 mph 86% 0.000 in 0.00 W/m2
06:09 56.7 °F 52.5 °F 30.4 in NE 4 mph 7 mph 86% 0.000 in 0.00 W/m2
06:14 56.7 °F 52.5 °F 30.4 in NNE 5 mph 5 mph 86% 0.000 in 0.00 W/m2
06:19 56.5 °F 52.3 °F 30.4 in NNE 6 mph 6 mph 86% 0.000 in 0.00 W/m2
06:24 56.5 °F 52.3 °F 30.4 in NNE 6 mph 7 mph 86% 0.000 in 0.00 W/m2
06:29 56.5 °F 52.3 °F 30.3 in NNE 5 mph 5 mph 86% 0.000 in 0.00 W/m2
06:34 56.5 °F 52.3 °F 30.3 in NNE 5 mph 5 mph 86% 0.000 in 0.00 W/m2
06:39 56.5 °F 52.3 °F 30.3 in NNE 6 mph 7 mph 86% 0.000 in 0.00 W/m2
06:44 56.3 °F 52.2 °F 30.4 in NNE 6 mph 7 mph 86% 0.000 in 0.00 W/m2
06:49 56.3 °F 52.5 °F 30.4 in NNE 6 mph 8 mph 87% 0.000 in 0.00 W/m2
06:54 56.3 °F 52.5 °F 30.3 in NE 6 mph 7 mph 87% 0.000 in 0.00 W/m2
06:59 56.3 °F 52.5 °F 30.4 in NE 5 mph 5 mph 87% 0.000 in 0.00 W/m2
07:04 56.3 °F 52.5 °F 30.4 in ENE 6 mph 6 mph 87% 0.000 in 0.00 W/m2
07:09 56.3 °F 52.5 °F 30.4 in NE 5 mph 6 mph 87% 0.000 in 0.00 W/m2
07:14 56.3 °F 52.5 °F 30.4 in NE 5 mph 5 mph 87% 0.000 in 0.00 W/m2
07:19 56.3 °F 52.9 °F 30.4 in NNE 5 mph 5 mph 88% 0.000 in 0.00 W/m2
07:24 56.5 °F 52.9 °F 30.4 in NNE 5 mph 5 mph 88% 0.000 in 0.00 W/m2
07:29 56.5 °F 52.9 °F 30.4 in North 5 mph 5 mph 88% 0.000 in 0.00 W/m2
07:34 56.5 °F 52.9 °F 30.4 in NNE 5 mph 6 mph 88% 0.000 in 7.00 W/m2
07:39 56.5 °F 52.9 °F 30.4 in NE 3 mph 5 mph 88% 0.000 in 12.00 W/m2
07:44 56.5 °F 52.9 °F 30.4 in NE 8 mph 8 mph 88% 0.000 in 18.00 W/m2
07:49 56.5 °F 52.9 °F 30.4 in NE 4 mph 8 mph 88% 0.000 in 19.00 W/m2
07:54 56.7 °F 53.1 °F 30.4 in ENE 2 mph 3 mph 88% 0.000 in 19.00 W/m2
07:59 56.7 °F 53.1 °F 30.4 in NE 3 mph 3 mph 88% 0.000 in 19.00 W/m2
08:04 56.8 °F 53.2 °F 30.4 in NNE 3 mph 3 mph 88% 0.000 in 23.00 W/m2
08:09 56.8 °F 53.2 °F 30.4 in NE 4 mph 4 mph 88% 0.000 in 26.00 W/m2
08:14 56.8 °F 53.2 °F 30.4 in NNE 6 mph 6 mph 88% 0.000 in 33.00 W/m2
08:19 56.8 °F 53.2 °F 30.4 in NNE 5 mph 6 mph 88% 0.000 in 37.00 W/m2
08:24 57.0 °F 53.4 °F 30.4 in NNE 7 mph 7 mph 88% 0.000 in 42.00 W/m2
08:29 56.8 °F 53.2 °F 30.4 in NNE 5 mph 5 mph 88% 0.000 in 46.00 W/m2
08:34 57.0 °F 53.4 °F 30.4 in NNE 6 mph 8 mph 88% 0.000 in 44.00 W/m2
08:39 57.0 °F 53.4 °F 30.4 in NNE 4 mph 8 mph 88% 0.000 in 46.00 W/m2
08:44 57.0 °F 53.4 °F 30.4 in NE 4 mph 5 mph 88% 0.000 in 54.00 W/m2
08:49 57.4 °F 53.8 °F 30.4 in NNE 5 mph 5 mph 88% 0.000 in 69.00 W/m2
08:54 57.4 °F 53.8 °F 30.4 in NNE 5 mph 5 mph 88% 0.000 in 69.00 W/m2
08:59 57.4 °F 53.8 °F 30.4 in NNE 5 mph 5 mph 88% 0.000 in 54.00 W/m2
09:04 57.4 °F 53.8 °F 30.4 in NE 3 mph 4 mph 88% 0.000 in 56.00 W/m2
09:09 57.6 °F 54.0 °F 30.4 in NNE 3 mph 3 mph 88% 0.000 in 72.00 W/m2
09:14 57.6 °F 54.0 °F 30.4 in NE 4 mph 5 mph 88% 0.000 in 72.00 W/m2
09:19 57.7 °F 54.0 °F 30.4 in NE 4 mph 4 mph 87% 0.000 in 72.00 W/m2
09:24 57.9 °F 54.3 °F 30.4 in NE 2 mph 4 mph 88% 0.000 in 83.00 W/m2
09:29 57.9 °F 54.3 °F 30.4 in NNE 5 mph 5 mph 88% 0.000 in 91.00 W/m2
09:34 57.9 °F 54.1 °F 30.4 in NE 4 mph 5 mph 87% 0.000 in 90.00 W/m2
09:39 58.1 °F 54.3 °F 30.4 in NNE 4 mph 4 mph 87% 0.000 in 104.00 W/m2
09:44 58.3 °F 54.5 °F 30.4 in ENE 5 mph 6 mph 87% 0.000 in 139.00 W/m2
09:49 58.5 °F 54.7 °F 30.4 in NE 5 mph 6 mph 87% 0.000 in 142.00 W/m2
09:54 58.6 °F 54.9 °F 30.4 in ENE 4 mph 6 mph 87% 0.000 in 132.00 W/m2
09:59 58.8 °F 54.7 °F 30.4 in ENE 6 mph 6 mph 86% 0.000 in 171.00 W/m2
10:04 59.2 °F 55.0 °F 30.4 in East 7 mph 7 mph 86% 0.000 in 271.00 W/m2
10:09 59.9 °F 55.6 °F 30.4 in ESE 6 mph 7 mph 86% 0.000 in 360.00 W/m2
10:14 60.6 °F 56.1 °F 30.4 in SE 5 mph 7 mph 85% 0.000 in 367.00 W/m2
10:19 61.0 °F 56.5 °F 30.4 in SE 7 mph 7 mph 85% 0.000 in 243.00 W/m2
10:24 60.8 °F 55.6 °F 30.4 in SE 4 mph 5 mph 84% 0.000 in 183.00 W/m2
10:29 60.6 °F 55.8 °F 30.4 in ESE 6 mph 6 mph 84% 0.000 in 192.00 W/m2
10:34 60.8 °F 55.8 °F 30.4 in ENE 3 mph 3 mph 84% 0.000 in 197.00 W/m2
10:39 61.2 °F 56.3 °F 30.4 in East 3 mph 3 mph 84% 0.000 in 297.00 W/m2
10:44 61.9 °F 56.7 °F 30.4 in ESE 4 mph 6 mph 84% 0.000 in 297.00 W/m2
10:49 61.9 °F 56.7 °F 30.4 in East 3 mph 6 mph 83% 0.000 in 279.00 W/m2
10:54 62.1 °F 56.7 °F 30.4 in East 7 mph 7 mph 83% 0.000 in 288.00 W/m2
10:59 62.1 °F 56.5 °F 30.4 in East 7 mph 7 mph 82% 0.000 in 227.00 W/m2
11:04 62.8 °F 57.2 °F 30.4 in NNE 5 mph 5 mph 82% 0.000 in 285.00 W/m2
11:09 63.0 °F 57.0 °F 30.4 in ENE 6 mph 6 mph 81% 0.000 in 190.00 W/m2
11:14 62.8 °F 56.8 °F 30.4 in ENE 9 mph 9 mph 81% 0.000 in 260.00 W/m2
11:19 62.4 °F 56.5 °F 30.4 in NE 8 mph 8 mph 81% 0.000 in 260.00 W/m2
11:24 62.4 °F 56.5 °F 30.4 in NE 5 mph 5 mph 81% 0.000 in 167.00 W/m2
11:29 62.6 °F 56.7 °F 30.4 in NE 5 mph 5 mph 81% 0.000 in 181.00 W/m2
11:34 63.0 °F 57.0 °F 30.3 in ENE 4 mph 4 mph 81% 0.000 in 181.00 W/m2
11:39 63.0 °F 57.0 °F 30.3 in ESE 3 mph 3 mph 81% 0.000 in 186.00 W/m2
11:44 63.0 °F 57.0 °F 30.3 in ESE 4 mph 4 mph 81% 0.000 in 186.00 W/m2
11:49 63.1 °F 57.2 °F 30.3 in ESE 5 mph 6 mph 81% 0.000 in 183.00 W/m2
11:54 63.1 °F 57.2 °F 30.3 in ESE 6 mph 7 mph 81% 0.000 in 144.00 W/m2
11:59 63.0 °F 57.0 °F 30.3 in ESE 6 mph 8 mph 81% 0.000 in 155.00 W/m2
12:04 63.0 °F 57.4 °F 30.3 in ESE 7 mph 8 mph 82% 0.000 in 181.00 W/m2
12:09 63.1 °F 57.6 °F 30.3 in East 5 mph 7 mph 82% 0.000 in 237.00 W/m2
12:14 64.0 °F 58.1 °F 30.3 in East 4 mph 5 mph 82% 0.000 in 290.00 W/m2
12:19 64.0 °F 58.1 °F 30.3 in East 6 mph 6 mph 81% 0.000 in 294.00 W/m2
12:24 64.0 °F 58.1 °F 30.3 in ESE 7 mph 7 mph 81% 0.000 in 267.00 W/m2
12:29 63.9 °F 57.9 °F 30.3 in SE 8 mph 8 mph 81% 0.000 in 257.00 W/m2
12:34 64.2 °F 58.1 °F 30.3 in East 4 mph 6 mph 81% 0.000 in 214.00 W/m2
12:39 64.0 °F 58.1 °F 30.3 in ESE 6 mph 7 mph 81% 0.000 in 179.00 W/m2
12:44 64.0 °F 58.1 °F 30.3 in ENE 4 mph 7 mph 81% 0.000 in 320.00 W/m2
12:49 64.8 °F 58.8 °F 30.3 in ESE 5 mph 5 mph 81% 0.000 in 431.00 W/m2
12:54 65.5 °F 59.2 °F 30.3 in SE 7 mph 7 mph 81% 0.000 in 457.00 W/m2
12:59 65.7 °F 59.4 °F 30.3 in ESE 6 mph 7 mph 80% 0.000 in 417.00 W/m2
13:04 65.5 °F 59.2 °F 30.3 in ESE 8 mph 8 mph 80% 0.000 in 417.00 W/m2
13:09 65.7 °F 59.4 °F 30.3 in ESE 5 mph 5 mph 80% 0.000 in 257.00 W/m2
13:14 65.7 °F 59.0 °F 30.3 in East 6 mph 6 mph 79% 0.000 in 294.00 W/m2
13:19 65.7 °F 59.4 °F 30.3 in ESE 5 mph 6 mph 80% 0.000 in 322.00 W/m2
13:24 65.8 °F 59.2 °F 30.3 in East 5 mph 7 mph 79% 0.000 in 237.00 W/m2
13:29 65.7 °F 59.0 °F 30.3 in ESE 9 mph 9 mph 79% 0.000 in 394.00 W/m2
13:34 68.2 °F 61.0 °F 30.3 in SE 11 mph 11 mph 80% 0.000 in 749.00 W/m2
13:39 68.4 °F 61.2 °F 30.3 in SSE 10 mph 10 mph 78% 0.000 in 606.00 W/m2
13:44 68.4 °F 60.4 °F 30.2 in SSE 10 mph 10 mph 76% 0.000 in 548.00 W/m2
13:49 67.8 °F 59.5 °F 30.2 in ESE 8 mph 9 mph 76% 0.000 in 378.00 W/m2
13:54 66.9 °F 59.2 °F 30.2 in ESE 9 mph 9 mph 76% 0.000 in 378.00 W/m2
13:59 66.6 °F 59.5 °F 30.2 in ESE 7 mph 10 mph 78% 0.000 in 234.00 W/m2
14:04 67.3 °F 60.1 °F 30.2 in ESE 7 mph 7 mph 78% 0.000 in 279.00 W/m2
14:09 67.3 °F 59.9 °F 30.2 in ESE 8 mph 8 mph 77% 0.000 in 279.00 W/m2
14:14 67.6 °F 60.3 °F 30.2 in SE 8 mph 8 mph 77% 0.000 in 207.00 W/m2
14:19 67.5 °F 59.9 °F 30.2 in ESE 7 mph 8 mph 77% 0.000 in 179.00 W/m2
14:24 67.5 °F 60.1 °F 30.2 in SE 7 mph 7 mph 77% 0.000 in 153.00 W/m2
14:29 67.6 °F 60.3 °F 30.2 in SE 7 mph 7 mph 77% 0.000 in 137.00 W/m2
14:34 67.6 °F 60.3 °F 30.2 in SE 9 mph 9 mph 77% 0.000 in 190.00 W/m2
14:39 67.8 °F 60.6 °F 30.2 in SSE 8 mph 9 mph 78% 0.000 in 190.00 W/m2
14:44 67.8 °F 60.3 °F 30.2 in ESE 8 mph 8 mph 77% 0.000 in 199.00 W/m2
14:49 67.8 °F 60.3 °F 30.2 in SE 5 mph 6 mph 77% 0.000 in 167.00 W/m2
14:54 68.0 °F 60.4 °F 30.2 in SE 8 mph 8 mph 77% 0.000 in 169.00 W/m2
14:59 67.8 °F 60.3 °F 30.2 in SE 8 mph 8 mph 77% 0.000 in 158.00 W/m2
15:04 67.8 °F 60.3 °F 30.2 in SE 7 mph 8 mph 77% 0.000 in 158.00 W/m2
15:09 67.6 °F 60.4 °F 30.2 in SE 7 mph 8 mph 78% 0.000 in 125.00 W/m2
15:14 67.8 °F 60.6 °F 30.2 in SSE 7 mph 9 mph 78% 0.000 in 142.00 W/m2
15:19 67.8 °F 60.6 °F 30.2 in SE 8 mph 9 mph 78% 0.000 in 98.00 W/m2
15:24 67.5 °F 60.4 °F 30.2 in SE 9 mph 9 mph 78% 0.000 in 179.00 W/m2
15:29 67.6 °F 60.6 °F 30.2 in SE 9 mph 11 mph 78% 0.000 in 179.00 W/m2
15:34 67.5 °F 60.4 °F 30.2 in SE 9 mph 9 mph 78% 0.000 in 141.00 W/m2
15:39 67.3 °F 60.3 °F 30.2 in SE 9 mph 9 mph 78% 0.000 in 109.00 W/m2
15:44 67.3 °F 60.6 °F 30.2 in SE 8 mph 9 mph 79% 0.000 in 118.00 W/m2
15:49 67.3 °F 60.6 °F 30.2 in SE 10 mph 10 mph 79% 0.000 in 86.00 W/m2
15:54 67.3 °F 60.6 °F 30.2 in SSE 12 mph 12 mph 79% 0.000 in 79.00 W/m2
15:59 66.9 °F 60.4 °F 30.2 in SSE 12 mph 12 mph 80% 0.000 in 121.00 W/m2
16:04 66.7 °F 60.4 °F 30.2 in SSE 7 mph 11 mph 80% 0.000 in 128.00 W/m2
16:09 66.9 °F 60.6 °F 30.2 in SE 11 mph 11 mph 80% 0.000 in 155.00 W/m2
16:14 67.1 °F 60.8 °F 30.2 in SE 11 mph 11 mph 80% 0.000 in 121.00 W/m2
16:19 66.9 °F 60.6 °F 30.2 in SSE 13 mph 13 mph 80% 0.000 in 118.00 W/m2
16:24 66.7 °F 60.6 °F 30.2 in SSE 10 mph 10 mph 81% 0.000 in 90.00 W/m2
16:29 66.6 °F 60.6 °F 30.2 in SE 8 mph 11 mph 81% 0.000 in 58.00 W/m2
16:34 66.4 °F 60.4 °F 30.2 in SSE 10 mph 10 mph 81% 0.000 in 53.00 W/m2
16:39 66.0 °F 60.3 °F 30.2 in SE 10 mph 11 mph 82% 0.000 in 42.00 W/m2
16:44 65.8 °F 60.3 °F 30.2 in SE 10 mph 10 mph 82% 0.000 in 65.00 W/m2
16:49 65.7 °F 60.1 °F 30.2 in SE 7 mph 9 mph 82% 0.000 in 67.00 W/m2
16:54 65.8 °F 60.3 °F 30.2 in SE 9 mph 9 mph 82% 0.000 in 54.00 W/m2
16:59 65.7 °F 60.1 °F 30.2 in SE 8 mph 8 mph 82% 0.000 in 19.00 W/m2
17:04 65.7 °F 60.1 °F 30.2 in SE 7 mph 8 mph 82% 0.000 in 19.00 W/m2
17:09 65.5 °F 60.3 °F 30.2 in SE 9 mph 9 mph 83% 0.000 in 19.00 W/m2
17:14 65.5 °F 60.3 °F 30.2 in SE 10 mph 10 mph 83% 0.000 in 12.00 W/m2
17:19 65.1 °F 59.9 °F 30.2 in SE 10 mph 10 mph 83% 0.000 in 12.00 W/m2
17:24 65.1 °F 60.1 °F 30.2 in SSE 9 mph 9 mph 84% 0.000 in 12.00 W/m2
17:29 65.1 °F 60.1 °F 30.2 in SE 8 mph 9 mph 84% 0.000 in 7.00 W/m2
17:34 64.9 °F 59.9 °F 30.2 in SE 11 mph 11 mph 84% 0.000 in 5.00 W/m2
17:39 64.8 °F 60.1 °F 30.2 in SE 9 mph 9 mph 85% 0.000 in 5.00 W/m2
17:44 64.6 °F 59.9 °F 30.2 in SE 8 mph 8 mph 85% 0.000 in 0.00 W/m2
17:49 64.6 °F 59.9 °F 30.2 in SE 8 mph 8 mph 85% 0.000 in 0.00 W/m2
17:54 64.6 °F 59.9 °F 30.2 in SE 8 mph 8 mph 85% 0.000 in 0.00 W/m2
17:59 64.4 °F 59.9 °F 30.2 in SSE 9 mph 9 mph 86% 0.000 in 0.00 W/m2
18:04 64.2 °F 59.9 °F 30.2 in SSE 8 mph 9 mph 86% 0.000 in 0.00 W/m2
18:09 64.0 °F 59.7 °F 30.2 in SSE 7 mph 8 mph 86% 0.000 in 0.00 W/m2
18:14 63.9 °F 59.5 °F 30.2 in SSE 6 mph 7 mph 86% 0.000 in 0.00 W/m2
18:19 63.9 °F 59.9 °F 30.2 in South 4 mph 5 mph 87% 0.000 in 0.00 W/m2
18:24 63.9 °F 59.9 °F 30.2 in SE 6 mph 6 mph 87% 0.000 in 0.00 W/m2
18:29 63.9 °F 59.9 °F 30.2 in SE 7 mph 7 mph 87% 0.000 in 0.00 W/m2
18:34 63.7 °F 59.7 °F 30.2 in SE 5 mph 7 mph 87% 0.000 in 0.00 W/m2
18:39 63.7 °F 60.1 °F 30.2 in SE 8 mph 9 mph 88% 0.000 in 0.00 W/m2
18:44 63.7 °F 60.1 °F 30.2 in SSE 8 mph 8 mph 88% 0.000 in 0.00 W/m2
18:49 63.5 °F 59.9 °F 30.2 in SE 6 mph 8 mph 88% 0.000 in 0.00 W/m2
18:54 63.3 °F 59.7 °F 30.2 in SE 5 mph 7 mph 88% 0.000 in 0.00 W/m2
18:59 63.3 °F 59.7 °F 30.2 in SE 5 mph 7 mph 88% 0.000 in 0.00 W/m2
19:04 63.3 °F 59.9 °F 30.2 in SE 4 mph 6 mph 89% 0.000 in 0.00 W/m2
19:09 63.1 °F 59.9 °F 30.2 in ESE 4 mph 4 mph 89% 0.000 in 0.00 W/m2
19:14 63.1 °F 59.9 °F 30.2 in SE 5 mph 5 mph 89% 0.000 in 0.00 W/m2
19:19 63.0 °F 59.7 °F 30.2 in ESE 5 mph 5 mph 89% 0.000 in 0.00 W/m2
19:24 62.8 °F 59.5 °F 30.2 in ESE 7 mph 7 mph 89% 0.000 in 0.00 W/m2
19:29 62.8 °F 59.5 °F 30.2 in SE 7 mph 7 mph 90% 0.000 in 0.00 W/m2
Villages of Bridgestone, Spring, TX USA
Compliments of Weather Underground - 4 mb